Accueil
METAR-TAF:

METAR-TAF

Aéroports :

Base aérienne 118 Mont-de-Marsan

Mont-De-Marsan, France

latitude: 43-55N, longitude: 000-30W, altitude: 62 m

Observation

Le bulletin a été fait il y a 40 minutes, à 12:30 UTC
Vent 7 kt de nord, variant entre nord-ouest et nord/nord-est
Température 28°C
Humidité 30%
Pression 1022 hPa
Visibilité 10 km ou plus
pas de nuages en-dessous de 1500 mètres et pas de cumulonimbus.

METAR: LFBM 221230Z AUTO 35007KT 310V030 CAVOK 28/09 Q1022 NOSIG

Heure: 15:10 (13:10 UTC)

Prévision

Le bulletin a été fait il y a 5 heures et 10 minutes, à 08:00 UTC
Prévision valable du 22 à 09 UTC au 23 à 09 UTC
Vent 3 kt de direction variable
Visibilité: 5000 m
Nuages épars à une hauteur de 500 ft
brume
Evoluant progressivement
du 22 à 09 UTC au 22 à 10 UTC
Visibilité 10 km ou plus

TAF: LFBM 220800Z 2209/2309 VRB03KT 5000 BR SCT005 BECMG 2209/2210 9999 NSW NSC

Observations et prévisions météorologiques de plus de 4000 aéroports (messages METAR et TAF).

Les stations disponibles sont représentées par des disques jaunes et rouges sur la carte.

Passer la souris dessus pour voir le nom de la station.

Cliquer dessus pour voir les observations et prévisions météorologiques.

Pour changer de carte: cliquez sur les boutons verts avec une croix noire pour zoomer, sur le bouton vert avec un tiret pour effectuer un zoom arrière, ou sur les flèches vertes pour les cartes adjacentes.


METAR-TAF: